createdAt,value
2022-11-05T06:15:53.718Z,0.60
2022-11-05T06:18:20.796Z,0.68
2022-11-05T06:20:47.726Z,0.70
2022-11-05T06:23:14.699Z,0.50
2022-11-05T06:25:41.702Z,0.60
2022-11-05T06:28:08.785Z,0.60
2022-11-05T06:30:35.718Z,0.77
2022-11-05T06:33:04.549Z,0.70
2022-11-05T06:35:31.900Z,0.57
2022-11-05T06:38:02.261Z,0.40
2022-11-05T06:40:29.751Z,0.60
2022-11-05T06:42:56.754Z,0.50
2022-11-05T06:45:23.958Z,1.02
2022-11-05T06:47:57.110Z,0.80
2022-11-05T06:50:28.957Z,0.88
2022-11-05T06:53:01.426Z,0.80
2022-11-05T06:55:30.074Z,0.70
2022-11-05T06:57:57.750Z,0.60
2022-11-05T07:00:25.170Z,0.50
2022-11-05T07:02:52.114Z,0.80
2022-11-05T07:05:19.256Z,0.63
2022-11-05T07:07:46.355Z,1.15
2022-11-05T07:10:18.679Z,0.80
2022-11-05T07:12:45.886Z,1.00
2022-11-05T07:15:13.675Z,0.85
2022-11-05T07:17:40.940Z,0.80
2022-11-05T07:20:09.348Z,0.85
2022-11-05T07:22:36.834Z,0.80
2022-11-05T07:25:05.653Z,1.05
2022-11-05T07:27:38.839Z,0.50
2022-11-05T07:30:08.706Z,0.75
2022-11-05T07:32:41.904Z,1.15
2022-11-05T07:35:10.043Z,0.77
2022-11-05T07:37:47.854Z,0.70
2022-11-05T07:40:16.287Z,0.70
2022-11-05T07:42:44.244Z,1.00
2022-11-05T07:45:11.980Z,1.20
2022-11-05T07:47:45.098Z,0.90
2022-11-05T07:50:12.004Z,0.65
2022-11-05T07:52:39.014Z,0.60
2022-11-05T07:55:06.496Z,0.70
2022-11-05T07:57:40.027Z,0.80
2022-11-05T08:00:07.799Z,1.10
2022-11-05T08:02:34.832Z,1.25
2022-11-05T08:05:02.105Z,1.02
2022-11-05T08:07:29.020Z,1.35
2022-11-05T08:09:55.911Z,1.08
2022-11-05T08:12:22.880Z,1.23
2022-11-05T08:14:50.793Z,1.30
2022-11-05T08:17:18.685Z,0.90
2022-11-05T08:19:45.738Z,0.90
2022-11-05T08:22:12.688Z,1.23
2022-11-05T08:24:39.618Z,0.80
2022-11-05T08:27:06.589Z,1.40
2022-11-05T08:29:33.584Z,1.00
2022-11-05T08:32:00.529Z,1.00
2022-11-05T08:34:27.412Z,1.63
2022-11-05T08:36:54.495Z,1.20
2022-11-05T08:39:21.383Z,1.30
2022-11-05T08:41:48.503Z,1.42
2022-11-05T08:44:15.673Z,1.15
2022-11-05T08:46:43.027Z,2.05
2022-11-05T08:49:10.041Z,1.40
2022-11-05T08:51:37.054Z,0.98
2022-11-05T08:54:04.314Z,1.35
2022-11-05T08:56:31.258Z,1.17
2022-11-05T08:58:58.188Z,1.95
2022-11-05T09:01:34.253Z,2.47
2022-11-05T09:04:01.596Z,1.90
2022-11-05T09:06:29.989Z,1.63
2022-11-05T09:08:57.096Z,1.80
2022-11-05T09:11:33.141Z,1.77
2022-11-05T09:14:11.090Z,2.17
2022-11-05T09:17:19.229Z,2.03
2022-11-05T09:19:46.512Z,1.30
2022-11-05T09:22:13.787Z,2.10
2022-11-05T09:24:41.744Z,2.85
2022-11-05T09:27:10.460Z,3.78
2022-11-05T09:29:37.855Z,2.58
2022-11-05T09:32:05.137Z,3.17
2022-11-05T09:34:32.527Z,3.17
2022-11-05T09:37:00.119Z,3.00
2022-11-05T09:39:27.103Z,2.90
2022-11-05T09:42:01.212Z,2.88
2022-11-05T09:44:37.763Z,2.78
2022-11-05T09:47:11.357Z,2.42
2022-11-05T09:49:59.114Z,1.83
2022-11-05T09:52:29.524Z,1.60
2022-11-05T09:54:57.792Z,1.80
2022-11-05T09:57:53.359Z,2.35
2022-11-05T10:00:21.084Z,2.33
2022-11-05T10:02:47.938Z,2.55
2022-11-05T10:05:15.992Z,1.77
2022-11-05T10:07:50.847Z,2.72
2022-11-05T10:10:50.938Z,2.67
2022-11-05T10:13:27.815Z,2.00
2022-11-05T10:16:21.635Z,3.25
2022-11-05T10:18:55.070Z,2.58
2022-11-05T10:21:44.291Z,2.70
2022-11-05T10:24:15.141Z,1.92
2022-11-05T10:26:43.460Z,1.83
2022-11-05T10:29:15.522Z,1.38
2022-11-05T10:31:43.891Z,1.00
2022-11-05T10:34:16.919Z,0.90
2022-11-05T10:36:44.482Z,1.10
2022-11-05T10:39:19.430Z,1.20
2022-11-05T10:42:17.322Z,1.00
2022-11-05T10:44:58.777Z,1.30
2022-11-05T10:47:37.868Z,1.23
2022-11-05T10:50:09.701Z,1.35
2022-11-05T10:52:51.897Z,1.48
2022-11-05T10:55:29.583Z,1.38
2022-11-05T10:58:13.333Z,1.58
2022-11-05T11:00:41.297Z,1.15
2022-11-05T11:03:46.804Z,1.90
2022-11-05T11:06:22.448Z,1.58
2022-11-05T11:08:51.314Z,1.70
2022-11-05T11:11:36.655Z,1.98
2022-11-05T11:14:14.111Z,2.25
2022-11-05T11:16:43.919Z,1.67
2022-11-05T11:19:33.950Z,2.33
2022-11-05T11:22:03.834Z,2.35
2022-11-05T11:24:44.098Z,2.55
2022-11-05T11:27:33.332Z,2.00
2022-11-05T11:30:05.543Z,2.05
2022-11-05T11:32:37.294Z,2.50
2022-11-05T11:35:06.702Z,2.78
2022-11-05T11:37:37.329Z,2.67
2022-11-05T11:40:13.263Z,3.33
2022-11-05T11:42:41.583Z,2.42
2022-11-05T11:45:18.625Z,2.45
2022-11-05T11:47:48.935Z,3.10
2022-11-05T11:50:36.821Z,3.25
2022-11-05T11:53:22.058Z,3.20
2022-11-05T11:56:12.582Z,2.90
2022-11-05T11:58:43.471Z,2.38
2022-11-05T12:01:37.940Z,3.63
2022-11-05T12:04:27.254Z,4.22
2022-11-05T12:07:18.577Z,2.20
2022-11-05T12:10:00.251Z,3.55
2022-11-05T12:12:49.891Z,2.60
2022-11-05T12:15:49.774Z,2.75
2022-11-05T12:18:19.443Z,2.50
2022-11-05T12:21:14.350Z,2.60
2022-11-05T12:24:05.739Z,1.50
2022-11-05T12:26:40.898Z,2.35
2022-11-05T12:29:55.147Z,3.40
2022-11-05T12:32:40.658Z,2.05
2022-11-05T12:35:17.133Z,2.03
2022-11-05T12:37:59.124Z,2.90
2022-11-05T12:40:44.655Z,4.97
2022-11-05T12:43:15.989Z,3.00
2022-11-05T12:46:08.796Z,3.78
2022-11-05T12:48:57.840Z,2.78
2022-11-05T12:51:55.960Z,3.22
2022-11-05T12:54:42.005Z,3.63
2022-11-05T12:57:12.606Z,3.88
2022-11-05T12:59:48.592Z,2.75
2022-11-05T13:02:30.669Z,4.93
2022-11-05T13:05:18.044Z,3.65
2022-11-05T13:08:05.201Z,2.75
2022-11-05T13:10:41.262Z,2.50
2022-11-05T13:13:26.136Z,2.47
2022-11-05T13:16:12.420Z,2.95
2022-11-05T13:19:05.638Z,2.00
2022-11-05T13:21:34.451Z,1.92
2022-11-05T13:24:11.936Z,2.00
2022-11-05T13:26:54.337Z,1.30
2022-11-05T13:29:44.377Z,1.42
2022-11-05T13:32:33.386Z,1.55
2022-11-05T13:35:04.346Z,1.83
2022-11-05T13:37:56.203Z,1.17
2022-11-05T13:40:45.047Z,1.35
2022-11-05T13:43:27.810Z,1.20
2022-11-05T13:46:23.551Z,1.50
2022-11-05T13:49:03.471Z,1.23
2022-11-05T13:51:55.242Z,1.50
2022-11-05T13:54:46.850Z,1.20
2022-11-05T13:57:54.601Z,1.13
2022-11-05T14:00:30.048Z,1.75
2022-11-05T14:03:02.520Z,1.80
2022-11-05T14:05:37.470Z,1.33
2022-11-05T14:08:20.904Z,1.02
2022-11-05T14:10:58.855Z,1.15
2022-11-05T14:13:38.739Z,1.13
2022-11-05T14:16:20.781Z,1.08
2022-11-05T14:18:53.999Z,1.60
2022-11-05T14:21:27.013Z,1.30
2022-11-05T14:23:54.342Z,1.13
2022-11-05T14:26:26.778Z,1.30
2022-11-05T14:29:05.871Z,1.20
2022-11-05T14:32:08.296Z,1.50
2022-11-05T14:34:43.968Z,0.75
2022-11-05T14:37:27.612Z,1.15
2022-11-05T14:39:55.783Z,0.70
2022-11-05T14:42:28.994Z,1.10
2022-11-05T14:45:00.621Z,1.13
2022-11-05T14:47:31.941Z,1.30
2022-11-05T14:50:01.309Z,1.00
2022-11-05T14:52:29.077Z,1.20
2022-11-05T14:54:58.627Z,1.25
2022-11-05T14:57:43.874Z,0.93
2022-11-05T15:00:29.372Z,0.90
2022-11-05T15:02:58.984Z,0.90
2022-11-05T15:05:34.732Z,1.15
2022-11-05T15:08:32.315Z,0.70
2022-11-05T15:11:17.552Z,1.10
2022-11-05T15:14:01.146Z,1.00
2022-11-05T15:16:44.996Z,1.20
2022-11-05T15:19:21.353Z,0.90
2022-11-05T15:21:49.423Z,0.82
2022-11-05T15:24:18.676Z,1.15
2022-11-05T15:26:58.635Z,1.10
2022-11-05T15:29:28.939Z,1.30
2022-11-05T15:31:56.417Z,0.95
2022-11-05T15:34:25.587Z,1.42
2022-11-05T15:36:56.167Z,0.80
2022-11-05T15:39:40.338Z,1.30
2022-11-05T15:42:12.827Z,1.10
2022-11-05T15:44:43.628Z,1.38
2022-11-05T15:47:15.208Z,0.75
2022-11-05T15:49:45.109Z,1.05
2022-11-05T15:52:14.804Z,0.90
2022-11-05T15:54:42.767Z,0.85
2022-11-05T15:57:40.084Z,0.70
2022-11-05T16:00:17.858Z,1.08
2022-11-05T16:03:11.418Z,0.80
2022-11-05T16:05:44.039Z,0.90
2022-11-05T16:08:27.428Z,0.80
2022-11-05T16:10:57.977Z,0.90
2022-11-05T16:13:41.330Z,1.50
2022-11-05T16:16:14.231Z,2.85
2022-11-05T16:18:42.860Z,2.00
2022-11-05T16:21:15.415Z,2.47
2022-11-05T16:23:48.438Z,2.40
2022-11-05T16:27:00.433Z,3.17
2022-11-05T16:29:28.057Z,4.22
2022-11-05T16:31:56.812Z,4.03
2022-11-05T16:34:42.095Z,2.95
2022-11-05T16:37:13.607Z,3.60
2022-11-05T16:39:40.873Z,4.55
2022-11-05T16:42:34.159Z,7.95
2022-11-05T16:45:01.064Z,6.88
2022-11-05T16:47:28.056Z,7.63
2022-11-05T16:49:55.087Z,7.00
2022-11-05T16:52:22.208Z,5.60
2022-11-05T16:54:49.205Z,4.78
2022-11-05T16:57:31.715Z,3.90
2022-11-05T17:00:00.277Z,4.20
2022-11-05T17:02:27.956Z,4.85
2022-11-05T17:04:55.015Z,3.00
2022-11-05T17:07:22.051Z,3.25
2022-11-05T17:09:49.252Z,3.08
2022-11-05T17:12:16.308Z,3.08
2022-11-05T17:14:43.204Z,2.67
2022-11-05T17:17:10.822Z,2.17
2022-11-05T17:19:42.413Z,2.80
2022-11-05T17:22:09.742Z,2.88
2022-11-05T17:24:36.777Z,3.42
2022-11-05T17:27:03.725Z,2.78
2022-11-05T17:29:30.643Z,4.82
2022-11-05T17:31:57.718Z,3.25
2022-11-05T17:34:24.587Z,5.32
2022-11-05T17:36:51.827Z,4.18
2022-11-05T17:39:18.737Z,3.33
2022-11-05T17:41:46.236Z,3.08
2022-11-05T17:44:13.157Z,5.95
2022-11-05T17:46:40.036Z,3.95
2022-11-05T17:49:06.953Z,3.63
2022-11-05T17:51:34.681Z,5.03
2022-11-05T17:54:01.614Z,7.93
2022-11-05T17:56:34.464Z,10.23
2022-11-05T17:59:03.948Z,13.27
2022-11-05T18:01:33.615Z,6.03
2022-11-05T18:04:07.262Z,4.60
2022-11-05T18:06:37.362Z,4.65
2022-11-05T18:09:08.773Z,8.57
2022-11-05T18:11:36.436Z,6.47
2022-11-05T18:14:03.900Z,10.48
2022-11-05T18:16:30.862Z,7.78
2022-11-05T18:18:57.785Z,9.45
2022-11-05T18:21:24.742Z,15.95
2022-11-05T18:23:51.725Z,13.40
2022-11-05T18:26:18.782Z,16.27
2022-11-05T18:28:46.244Z,13.95
2022-11-05T18:31:20.612Z,14.25
2022-11-05T18:33:48.975Z,7.75
2022-11-05T18:36:30.603Z,12.05
2022-11-05T18:38:59.135Z,10.40
2022-11-05T18:41:26.282Z,7.50
2022-11-05T18:43:53.207Z,12.55
2022-11-05T18:46:51.643Z,12.77
2022-11-05T18:49:12.997Z,13.40
2022-11-05T18:51:39.909Z,11.18
2022-11-05T18:54:07.499Z,13.95
2022-11-05T18:56:35.735Z,18.33
2022-11-05T18:59:34.658Z,34.38
2022-11-05T19:01:49.737Z,30.70
2022-11-05T19:04:17.272Z,22.08
2022-11-05T19:06:44.585Z,24.85
2022-11-05T19:09:12.162Z,19.38
2022-11-05T19:11:40.483Z,35.47
2022-11-05T19:14:08.034Z,14.65
2022-11-05T19:16:34.998Z,18.10
2022-11-05T19:19:03.990Z,24.38
2022-11-05T19:21:31.399Z,15.75
2022-11-05T19:24:01.474Z,47.97
2022-11-05T19:26:29.512Z,45.08
2022-11-05T19:29:01.839Z,33.17
2022-11-05T19:31:29.591Z,63.30
2022-11-05T19:33:56.691Z,46.28
2022-11-05T19:36:24.808Z,32.70
2022-11-05T19:38:57.794Z,28.75
2022-11-05T19:41:25.994Z,31.17
2022-11-05T19:43:58.171Z,27.08
2022-11-05T19:46:25.939Z,19.02
2022-11-05T19:48:53.327Z,23.67
2022-11-05T19:51:25.339Z,30.83
2022-11-05T19:53:53.819Z,34.95
2022-11-05T19:56:23.279Z,59.53
2022-11-05T19:58:50.734Z,58.75
2022-11-05T20:01:18.978Z,47.28
2022-11-05T20:03:46.747Z,56.58
2022-11-05T20:06:17.160Z,45.28
2022-11-05T20:09:14.846Z,56.45
2022-11-05T20:11:32.217Z,37.15
2022-11-05T20:13:59.219Z,37.47
2022-11-05T20:16:28.973Z,37.75
2022-11-05T20:18:56.970Z,34.15
2022-11-05T20:21:23.888Z,24.83
2022-11-05T20:23:50.867Z,33.20
2022-11-05T20:26:17.822Z,26.23
2022-11-05T20:28:45.688Z,38.47
2022-11-05T20:31:14.862Z,29.73
2022-11-05T20:33:42.687Z,34.50
2022-11-05T20:36:15.942Z,24.88
2022-11-05T20:38:43.111Z,60.47
2022-11-05T20:41:12.631Z,39.38
2022-11-05T20:43:41.171Z,50.80
2022-11-05T20:46:09.964Z,58.00
2022-11-05T20:48:36.975Z,53.25
2022-11-05T20:51:09.641Z,32.97
2022-11-05T20:53:37.025Z,36.83
2022-11-05T20:56:07.767Z,28.95
2022-11-05T20:58:37.030Z,21.80
2022-11-05T21:01:05.613Z,24.33
2022-11-05T21:03:32.759Z,39.10
2022-11-05T21:06:04.289Z,24.70
2022-11-05T21:08:31.493Z,35.38
2022-11-05T21:10:59.078Z,21.90
2022-11-05T21:13:26.661Z,23.50
2022-11-05T21:15:56.718Z,26.13
2022-11-05T21:18:26.240Z,27.40
2022-11-05T21:20:53.309Z,20.00
2022-11-05T21:23:20.800Z,39.25
2022-11-05T21:25:47.798Z,61.50
2022-11-05T21:28:16.312Z,59.67
2022-11-05T21:30:45.903Z,63.95
2022-11-05T21:33:14.354Z,28.60
2022-11-05T21:35:46.809Z,33.05
2022-11-05T21:38:16.239Z,22.63
2022-11-05T21:40:43.465Z,42.63
2022-11-05T21:43:11.036Z,43.78
2022-11-05T21:45:42.232Z,38.88
2022-11-05T21:48:10.157Z,45.35
2022-11-05T21:50:59.871Z,44.38
2022-11-05T21:53:45.408Z,34.30
2022-11-05T21:56:39.580Z,52.05
2022-11-05T21:59:25.088Z,47.65
2022-11-05T22:02:01.376Z,47.95
2022-11-05T22:04:34.203Z,22.67
2022-11-05T22:07:01.361Z,41.17
2022-11-05T22:09:28.906Z,24.25
2022-11-05T22:11:56.147Z,36.28
2022-11-05T22:14:24.285Z,19.73
2022-11-05T22:16:51.310Z,29.38
2022-11-05T22:19:18.647Z,18.27
2022-11-05T22:21:46.175Z,25.15
2022-11-05T22:24:13.291Z,17.17
2022-11-05T22:26:42.090Z,27.88
2022-11-05T22:29:09.696Z,21.40
2022-11-05T22:31:36.980Z,20.80
2022-11-05T22:34:05.762Z,16.55
2022-11-05T22:36:34.092Z,16.42
2022-11-05T22:39:01.415Z,24.15
2022-11-05T22:41:28.413Z,28.48
2022-11-05T22:43:55.907Z,19.48
2022-11-05T22:46:25.687Z,20.98
2022-11-05T22:48:53.467Z,28.08
2022-11-05T22:51:24.726Z,22.70
2022-11-05T22:53:51.998Z,34.05
2022-11-05T22:56:22.633Z,18.20
2022-11-05T22:58:50.319Z,15.50
2022-11-05T23:01:18.869Z,18.45
2022-11-05T23:03:47.999Z,17.42
2022-11-05T23:06:37.630Z,22.83
2022-11-05T23:09:26.316Z,16.08
2022-11-05T23:11:54.027Z,12.60
2022-11-05T23:14:21.237Z,16.65
2022-11-05T23:17:21.341Z,11.90
2022-11-05T23:20:06.887Z,23.75
2022-11-05T23:22:52.491Z,21.20
2022-11-05T23:25:21.453Z,19.23
2022-11-05T23:27:51.192Z,19.35
2022-11-05T23:30:25.593Z,11.52
2022-11-05T23:32:53.570Z,9.60
2022-11-05T23:35:43.153Z,12.93
2022-11-05T23:38:28.565Z,8.68
2022-11-05T23:41:18.265Z,11.90
2022-11-05T23:44:03.945Z,14.02
2022-11-05T23:46:49.645Z,9.13
2022-11-05T23:49:16.719Z,10.98
2022-11-05T23:51:43.718Z,10.05
2022-11-05T23:54:10.876Z,8.48
2022-11-05T23:56:38.016Z,9.23
2022-11-05T23:59:05.383Z,12.85
